Time;durP1;ratioP1;P1;durP2;ratioP2;P2;SDS_P1;SDS_P2;PMS_P1;PMS_P2;Temp;Humidity;BMP_temperature;BMP_pressure;BME280_temperature;BME280_humidity;BME280_pressure;Samples;Min_cycle;Max_cycle;Signal;HPM_P1;HPM_P2
2022/08/04 00:01:57;;;;;;;1.80;1.70;;;27.60;95.10;;;;;;5092536;28;20519;-80
2022/08/04 00:04:32;;;;;;;3.10;1.43;;;27.60;94.90;;;;;;5055492;28;20482;-80
2022/08/04 00:07:08;;;;;;;1.67;1.50;;;27.50;94.90;;;;;;5065745;28;20458;-80
2022/08/04 00:09:43;;;;;;;1.67;1.53;;;27.40;94.90;;;;;;5062115;28;21161;-80
2022/08/04 00:12:12;;;;;;;1.47;1.10;;;27.40;95.50;;;;;;5064696;28;20453;-80
2022/08/04 00:14:48;;;;;;;1.57;1.47;;;27.40;94.30;;;;;;5062572;28;20450;-80
2022/08/04 00:17:19;;;;;;;1.70;1.47;;;27.40;94.50;;;;;;5061233;28;20465;-79
2022/08/04 00:19:55;;;;;;;1.67;1.57;;;27.40;94.10;;;;;;5059376;28;20502;-80
2022/08/04 00:22:28;;;;;;;1.37;1.20;;;27.40;94.00;;;;;;5062907;28;20462;-78
2022/08/04 00:24:58;;;;;;;1.50;1.40;;;27.30;93.70;;;;;;5061585;28;20482;-80
2022/08/04 00:27:28;;;;;;;1.43;1.33;;;27.30;94.20;;;;;;5058281;28;20946;-79
2022/08/04 00:29:57;;;;;;;1.67;1.57;;;27.30;94.70;;;;;;5063604;28;20475;-80
2022/08/04 00:32:26;;;;;;;1.60;1.50;;;27.30;94.80;;;;;;5062232;28;20568;-79
2022/08/04 00:35:03;;;;;;;7.30;1.90;;;27.30;94.70;;;;;;5058790;28;20442;-79
2022/08/04 01:51:05;;;;;;;1.00;1.00;;;26.90;89.40;;;;;;5060183;28;20553;-80
2022/08/04 01:53:36;;;;;;;1.20;1.10;;;26.90;89.60;;;;;;5064411;28;20962;-79
2022/08/04 01:56:07;;;;;;;1.40;1.23;;;26.90;90.40;;;;;;5062513;28;20455;-79
2022/08/04 01:58:38;;;;;;;2.60;1.40;;;26.90;91.40;;;;;;5062247;28;20466;-79
2022/08/04 02:01:09;;;;;;;1.30;1.20;;;26.90;91.30;;;;;;5064177;28;20473;-78
2022/08/04 02:03:40;;;;;;;1.30;1.20;;;26.90;92.20;;;;;;5066907;28;20501;-79
2022/08/04 02:06:32;;;;;;;1.50;1.40;;;26.90;92.00;;;;;;5062800;28;20486;-79
2022/08/04 02:09:10;;;;;;;2.93;1.37;;;26.80;92.50;;;;;;5063123;28;20484;-79
2022/08/04 02:11:45;;;;;;;1.40;1.30;;;26.80;99.90;;;;;;5064648;28;20484;-79
2022/08/04 02:17:10;;;;;;;1.60;1.50;;;26.70;92.80;;;;;;5094231;28;20467;-80
2022/08/04 02:19:54;;;;;;;1.40;1.30;;;26.60;92.80;;;;;;5064220;28;20477;-79
2022/08/04 02:22:26;;;;;;;1.50;1.40;;;26.60;92.50;;;;;;5061654;28;20463;-80
2022/08/04 02:25:02;;;;;;;2.90;1.60;;;26.50;93.30;;;;;;5064100;28;20475;-81
2022/08/04 02:27:39;;;;;;;1.17;1.17;;;26.50;93.60;;;;;;5062474;28;20860;-79
2022/08/04 02:30:33;;;;;;;1.37;1.27;;;26.50;93.30;;;;;;5064878;28;20588;-79
2022/08/04 02:33:03;;;;;;;1.50;1.20;;;26.50;93.30;;;;;;5064601;28;20462;-79
2022/08/04 02:35:36;;;;;;;2.03;1.60;;;26.50;92.70;;;;;;5063412;28;20451;-80
2022/08/04 02:38:16;;;;;;;4.30;1.10;;;26.40;92.40;;;;;;5063547;28;20859;-79
2022/08/04 02:40:55;;;;;;;1.40;1.30;;;26.40;92.70;;;;;;5061164;28;20919;-79
2022/08/04 02:43:28;;;;;;;1.70;1.60;;;26.40;94.00;;;;;;5081021;28;20462;-79
2022/08/04 02:46:18;;;;;;;1.33;1.23;;;26.30;94.10;;;;;;5061143;28;20876;-78
2022/08/04 02:48:48;;;;;;;1.67;1.30;;;26.30;94.50;;;;;;5056435;28;20538;-79
2022/08/04 02:51:20;;;;;;;1.63;1.43;;;26.30;95.40;;;;;;5060975;28;20466;-79
2022/08/04 02:53:52;;;;;;;1.50;1.40;;;26.30;95.10;;;;;;5064136;28;20462;-79
2022/08/04 02:56:21;;;;;;;1.70;1.60;;;26.20;95.60;;;;;;5097761;28;20907;-79
2022/08/04 02:58:52;;;;;;;1.60;1.50;;;26.10;95.00;;;;;;5064254;28;20911;-80
2022/08/04 03:01:23;;;;;;;1.70;1.60;;;26.10;94.50;;;;;;5063084;28;20508;-80
2022/08/04 03:04:11;;;;;;;2.63;1.30;;;26.10;95.10;;;;;;5058137;28;20443;-80
2022/08/04 03:07:13;;;;;;;1.90;1.80;;;26.10;94.50;;;;;;5063578;28;20482;-80
2022/08/04 03:10:20;;;;;;;1.60;1.50;;;26.00;94.60;;;;;;5060171;28;20478;-80
2022/08/04 03:13:25;;;;;;;2.10;1.53;;;26.00;94.60;;;;;;5095691;28;20970;-80
2022/08/04 03:16:12;;;;;;;1.50;1.40;;;26.00;94.50;;;;;;5060678;28;20558;-80
2022/08/04 03:19:28;;;;;;;2.20;1.47;;;25.90;94.50;;;;;;5063452;28;20471;-81
2022/08/04 03:22:27;;;;;;;1.80;1.70;;;25.90;94.10;;;;;;5030790;28;20470;-80
2022/08/04 03:25:22;;;;;;;2.70;1.50;;;25.80;94.60;;;;;;5061700;28;20639;-79
2022/08/04 03:28:18;;;;;;;1.37;1.27;;;25.80;94.80;;;;;;5062437;28;20446;-79
2022/08/04 03:31:02;;;;;;;1.50;1.40;;;25.70;94.50;;;;;;5057373;28;20494;-80
2022/08/04 03:33:58;;;;;;;1.60;1.50;;;25.70;95.70;;;;;;5059496;28;20535;-80
2022/08/04 03:37:03;;;;;;;1.83;1.73;;;25.70;95.30;;;;;;5059348;28;20458;-79
2022/08/04 03:40:17;;;;;;;2.53;1.70;;;25.70;95.30;;;;;;5052706;28;20482;-79
2022/08/04 03:43:34;;;;;;;1.57;1.40;;;25.70;94.80;;;;;;5063423;28;20467;-79
2022/08/04 03:47:04;;;;;;;2.53;1.50;;;25.70;95.60;;;;;;5062265;28;20557;-80
2022/08/04 03:50:11;;;;;;;2.03;1.60;;;25.60;95.90;;;;;;5049076;28;20896;-79
2022/08/04 03:53:08;;;;;;;1.83;1.70;;;25.60;95.70;;;;;;5054590;28;20454;-79
2022/08/04 03:56:08;;;;;;;3.03;1.80;;;25.60;95.80;;;;;;5064410;28;20451;-79
2022/08/04 03:59:07;;;;;;;1.60;1.50;;;25.50;95.50;;;;;;5059461;28;20973;-79
2022/08/04 04:01:51;;;;;;;3.93;1.70;;;25.50;96.00;;;;;;5054240;28;20455;-79
2022/08/04 04:04:51;;;;;;;1.53;1.40;;;25.50;95.90;;;;;;5061877;28;20459;-79
2022/08/04 04:07:48;;;;;;;3.13;1.50;;;25.50;96.00;;;;;;5063494;28;20462;-79
2022/08/04 04:10:40;;;;;;;3.10;1.50;;;25.50;95.70;;;;;;5061868;28;20528;-79
2022/08/04 04:13:23;;;;;;;2.30;1.60;;;25.50;95.80;;;;;;5059930;28;20448;-79
2022/08/04 04:16:18;;;;;;;1.87;1.60;;;25.50;96.10;;;;;;5059421;28;20824;-79
2022/08/04 04:19:14;;;;;;;1.83;1.50;;;25.50;96.40;;;;;;5060753;28;21017;-79
2022/08/04 04:22:09;;;;;;;1.60;1.50;;;25.50;97.40;;;;;;5060911;28;20915;-79
2022/08/04 04:24:54;;;;;;;2.00;1.80;;;25.50;96.40;;;;;;5058138;28;20464;-79
2022/08/04 04:27:34;;;;;;;1.80;1.70;;;25.40;96.00;;;;;;5067029;28;20533;-79
2022/08/04 04:30:08;;;;;;;2.23;1.57;;;25.40;97.10;;;;;;5067097;28;20544;-79
2022/08/04 04:32:51;;;;;;;1.43;1.33;;;25.50;96.80;;;;;;5060418;28;20455;-79
2022/08/04 04:35:32;;;;;;;1.50;1.40;;;25.40;97.00;;;;;;5080766;28;20450;-80
2022/08/04 04:38:20;;;;;;;1.60;1.50;;;25.50;98.40;;;;;;5065770;28;20450;-78
2022/08/04 04:41:05;;;;;;;2.37;1.80;;;25.50;97.90;;;;;;5062029;28;20469;-79
2022/08/04 04:44:00;;;;;;;1.57;1.47;;;25.40;97.60;;;;;;5066406;28;20488;-80
2022/08/04 04:46:37;;;;;;;1.93;1.20;;;25.40;96.70;;;;;;5065140;28;20573;-79
2022/08/04 04:49:16;;;;;;;1.77;1.60;;;25.40;97.30;;;;;;5063979;28;20483;-79
2022/08/04 04:51:49;;;;;;;1.97;1.40;;;25.40;97.60;;;;;;5063900;28;20473;-78
2022/08/04 04:54:28;;;;;;;1.40;1.30;;;25.40;97.90;;;;;;5063888;28;20466;-79
2022/08/04 04:57:05;;;;;;;3.13;1.60;;;25.40;98.50;;;;;;5060601;28;20511;-79
2022/08/04 04:59:37;;;;;;;5.33;2.50;;;25.50;98.90;;;;;;5068154;28;20561;-80
2022/08/04 05:02:41;;;;;;;1.70;1.60;;;25.50;99.40;;;;;;5062822;28;20924;-79
2022/08/04 05:05:26;;;;;;;2.07;1.87;;;25.50;99.40;;;;;;5063152;28;20446;-79
2022/08/04 05:08:25;;;;;;;1.70;1.60;;;25.50;99.40;;;;;;5060686;28;21012;-79
2022/08/04 05:11:39;;;;;;;2.50;1.60;;;25.50;99.60;;;;;;5063004;28;20449;-80
2022/08/04 05:14:11;;;;;;;1.80;1.67;;;25.50;99.90;;;;;;5065894;28;20520;-79
2022/08/04 05:17:04;;;;;;;1.90;1.80;;;25.50;99.90;;;;;;5057493;28;21211;-79
2022/08/04 05:19:44;;;;;;;1.80;1.70;;;25.50;99.90;;;;;;5067378;28;20553;-79
2022/08/04 05:22:22;;;;;;;3.37;1.80;;;25.60;99.90;;;;;;5067096;28;20454;-79
2022/08/04 05:24:55;;;;;;;2.33;2.00;;;25.60;99.90;;;;;;5062039;28;20454;-79
2022/08/04 05:27:28;;;;;;;1.90;1.80;;;25.60;99.90;;;;;;5065503;28;20493;-77
2022/08/04 05:30:01;;;;;;;2.20;1.60;;;25.70;99.90;;;;;;5067653;28;20488;-79
2022/08/04 05:32:36;;;;;;;2.60;1.80;;;25.70;99.90;;;;;;5069593;28;20601;-80
2022/08/04 05:35:07;;;;;;;1.67;1.57;;;25.70;99.90;;;;;;5066494;28;20438;-79
2022/08/04 05:37:40;;;;;;;1.97;1.70;;;25.80;99.90;;;;;;5068817;28;20453;-80
2022/08/04 05:40:10;;;;;;;2.63;1.77;;;25.80;99.90;;;;;;5083526;28;20470;-79
2022/08/04 05:42:40;;;;;;;1.77;1.67;;;25.90;99.90;;;;;;5064335;28;20453;-80
2022/08/04 05:45:10;;;;;;;1.80;1.50;;;25.90;99.90;;;;;;5065112;28;20473;-79
2022/08/04 05:47:38;;;;;;;1.40;1.30;;;25.90;99.90;;;;;;5067444;28;20471;-79
2022/08/04 05:50:09;;;;;;;1.67;1.50;;;26.00;99.90;;;;;;5070711;28;20496;-80
2022/08/04 05:52:39;;;;;;;1.87;1.77;;;26.10;99.90;;;;;;5075580;28;20463;-79
2022/08/04 05:55:08;;;;;;;2.73;1.53;;;26.10;99.90;;;;;;5066128;28;20451;-79
2022/08/04 05:57:40;;;;;;;1.63;1.53;;;26.10;99.90;;;;;;5068972;28;21119;-79
2022/08/04 06:00:09;;;;;;;2.67;1.77;;;26.20;99.90;;;;;;5066005;28;20471;-79
2022/08/04 06:02:59;;;;;;;1.77;1.67;;;26.20;99.90;;;;;;5079919;28;20454;-79
2022/08/04 06:05:29;;;;;;;1.50;1.40;;;26.20;99.30;;;;;;5068792;28;20504;-79
2022/08/04 06:07:58;;;;;;;1.77;1.30;;;26.30;99.90;;;;;;5072386;28;20467;-79
2022/08/04 06:10:42;;;;;;;1.67;1.57;;;26.40;99.90;;;;;;5070113;28;20474;-80
2022/08/04 06:13:13;;;;;;;2.93;1.73;;;26.50;99.90;;;;;;5069455;28;20845;-79
2022/08/04 06:16:02;;;;;;;1.40;1.30;;;26.50;99.90;;;;;;5067286;28;20485;-80
2022/08/04 06:18:33;;;;;;;1.33;1.23;;;26.50;99.90;;;;;;5071133;28;20457;-80
2022/08/04 06:21:26;;;;;;;2.47;1.47;;;26.60;99.90;;;;;;5067974;28;20524;-79
2022/08/04 06:23:57;;;;;;;2.20;1.58;;;26.60;99.90;;;;;;5069006;28;20972;-80
2022/08/04 06:26:34;;;;;;;1.50;1.40;;;26.80;99.90;;;;;;5067835;28;20774;-80
2022/08/04 06:29:03;;;;;;;1.47;1.37;;;26.80;99.90;;;;;;5067692;28;20481;-80
2022/08/04 06:31:45;;;;;;;1.40;1.30;;;26.90;99.90;;;;;;5069238;28;20516;-80
2022/08/04 06:34:34;;;;;;;2.30;1.47;;;26.90;99.90;;;;;;5058407;28;20491;-80
2022/08/04 06:37:04;;;;;;;1.90;1.80;;;27.00;99.90;;;;;;5068181;28;20496;-79
2022/08/04 06:39:34;;;;;;;2.47;1.60;;;27.10;99.90;;;;;;5068131;28;20532;-80
2022/08/04 06:42:05;;;;;;;1.83;1.70;;;27.10;99.90;;;;;;5064748;28;20515;-79
2022/08/04 06:44:51;;;;;;;1.30;1.23;;;27.10;99.90;;;;;;5067422;28;20461;-80
2022/08/04 06:47:20;;;;;;;1.60;1.50;;;27.30;99.90;;;;;;5065477;28;20470;-80
2022/08/04 06:49:50;;;;;;;2.33;1.40;;;27.40;99.90;;;;;;5063079;28;20539;-80
2022/08/04 06:52:39;;;;;;;2.13;1.60;;;27.50;99.90;;;;;;5063921;28;20552;-80
2022/08/04 06:55:10;;;;;;;1.80;1.50;;;27.70;99.90;;;;;;5064183;28;20490;-79
2022/08/04 06:57:40;;;;;;;1.40;1.30;;;27.80;99.90;;;;;;5068624;28;20444;-80
2022/08/04 07:00:11;;;;;;;1.30;1.20;;;27.80;99.90;;;;;;5059267;28;20469;-81
2022/08/04 07:02:42;;;;;;;1.40;1.30;;;28.00;99.90;;;;;;5063908;28;20523;-80
2022/08/04 07:05:11;;;;;;;1.67;1.40;;;28.10;99.90;;;;;;5076547;28;20450;-80
2022/08/04 07:07:40;;;;;;;1.50;1.40;;;28.30;99.90;;;;;;5065678;28;20471;-80
2022/08/04 07:10:27;;;;;;;1.40;1.30;;;28.40;99.90;;;;;;5065916;28;20557;-79
2022/08/04 07:12:56;;;;;;;2.07;1.50;;;28.60;99.90;;;;;;5066487;28;20443;-80
2022/08/04 07:15:25;;;;;;;1.60;1.50;;;28.70;99.90;;;;;;5066075;28;20461;-80
2022/08/04 07:17:58;;;;;;;1.97;1.40;;;28.80;99.90;;;;;;5066544;28;20578;-80
2022/08/04 07:20:27;;;;;;;1.50;1.40;;;28.90;99.90;;;;;;5070544;28;20473;-79
2022/08/04 07:23:03;;;;;;;1.40;1.30;;;29.10;99.90;;;;;;5063969;28;20485;-80
2022/08/04 07:25:34;;;;;;;1.23;1.13;;;29.10;99.90;;;;;;5064366;28;20453;-80
2022/08/04 07:28:24;;;;;;;1.40;1.23;;;29.10;99.90;;;;;;5064918;28;20499;-80
2022/08/04 07:30:54;;;;;;;1.43;1.30;;;29.10;99.90;;;;;;5064411;28;20893;-79
2022/08/04 07:33:23;;;;;;;1.30;1.20;;;29.20;99.90;;;;;;5068290;28;20482;-80
2022/08/04 07:35:53;;;;;;;1.83;1.50;;;29.20;99.90;;;;;;5063836;28;20546;-79
2022/08/04 07:38:39;;;;;;;1.50;1.40;;;29.20;99.90;;;;;;5056876;28;20455;-80
2022/08/04 07:41:24;;;;;;;1.73;1.63;;;29.30;99.90;;;;;;5061966;28;20443;-80
2022/08/04 07:44:14;;;;;;;1.40;1.30;;;29.20;99.90;;;;;;5062854;28;20721;-79
2022/08/04 07:46:43;;;;;;;1.70;1.60;;;29.20;99.90;;;;;;5064284;28;20520;-80
2022/08/04 07:49:11;;;;;;;1.60;1.50;;;29.20;99.90;;;;;;5063676;28;21117;-80
2022/08/04 07:52:01;;;;;;;2.03;1.63;;;29.20;99.90;;;;;;5065600;28;20565;-78
2022/08/04 07:54:30;;;;;;;1.50;1.40;;;29.20;99.90;;;;;;5064704;28;20488;-80
2022/08/04 07:57:00;;;;;;;1.40;1.30;;;29.20;99.90;;;;;;5061001;28;20508;-80
2022/08/04 07:59:28;;;;;;;1.37;1.27;;;29.20;99.90;;;;;;5057886;28;20471;-79
2022/08/04 08:02:00;;;;;;;1.30;1.20;;;29.20;99.90;;;;;;5062988;28;20451;-80
2022/08/04 08:04:29;;;;;;;1.80;1.70;;;29.20;99.90;;;;;;5061733;28;20571;-79
2022/08/04 08:06:58;;;;;;;2.40;1.80;;;29.20;99.90;;;;;;5062378;28;21252;-80
2022/08/04 08:09:26;;;;;;;1.73;1.57;;;29.20;99.90;;;;;;5059226;28;21250;-79
2022/08/04 08:11:56;;;;;;;2.37;1.50;;;29.20;99.90;;;;;;5068791;28;20457;-80
2022/08/04 08:14:46;;;;;;;1.23;1.13;;;29.30;99.90;;;;;;5059704;28;20850;-81
2022/08/04 08:17:14;;;;;;;1.30;1.20;;;29.30;99.90;;;;;;5093080;28;20454;-80
2022/08/04 08:19:42;;;;;;;1.40;1.30;;;29.30;99.90;;;;;;5066497;28;20474;-80
2022/08/04 08:22:11;;;;;;;1.53;1.43;;;29.30;99.90;;;;;;5064816;28;20451;-80
2022/08/04 08:24:40;;;;;;;1.30;1.20;;;29.30;99.90;;;;;;5061343;28;21415;-82
2022/08/04 08:27:08;;;;;;;1.50;1.40;;;29.30;99.90;;;;;;5061434;28;20458;-80
2022/08/04 08:29:38;;;;;;;1.50;1.40;;;29.30;99.90;;;;;;5063565;28;20466;-80
2022/08/04 08:32:11;;;;;;;1.23;1.13;;;29.30;99.90;;;;;;5064189;28;20443;-80
2022/08/04 08:34:41;;;;;;;1.20;1.10;;;29.30;99.90;;;;;;5063959;28;20480;-80
2022/08/04 08:37:16;;;;;;;1.30;1.20;;;29.30;99.90;;;;;;5064715;28;20454;-79
2022/08/04 08:39:54;;;;;;;6.43;1.30;;;29.30;99.90;;;;;;5068494;28;21063;-80
2022/08/04 08:43:01;;;;;;;1.30;1.20;;;29.30;99.90;;;;;;5059750;28;20450;-79
2022/08/04 08:46:28;;;;;;;1.47;1.37;;;29.40;99.90;;;;;;5037818;28;20862;-80
2022/08/04 08:49:45;;;;;;;1.53;1.43;;;29.40;99.90;;;;;;5068472;28;22357;-80
2022/08/04 08:52:55;;;;;;;1.73;1.33;;;29.40;99.90;;;;;;5064827;28;21465;-80
2022/08/04 08:55:42;;;;;;;1.50;1.40;;;29.40;99.90;;;;;;5064178;28;20488;-80
2022/08/04 08:58:35;;;;;;;1.53;1.43;;;29.40;99.90;;;;;;5067996;28;20445;-80
2022/08/04 09:01:12;;;;;;;1.30;1.20;;;29.50;99.90;;;;;;5065087;28;20917;-79
2022/08/04 09:04:35;;;;;;;3.00;1.63;;;29.50;99.90;;;;;;5064552;28;20470;-80
2022/08/04 09:07:23;;;;;;;1.40;1.30;;;29.60;99.90;;;;;;5050839;28;20550;-80
2022/08/04 09:10:06;;;;;;;1.70;1.60;;;29.60;99.90;;;;;;5066014;28;20516;-81
2022/08/04 09:12:40;;;;;;;1.40;1.30;;;29.50;99.90;;;;;;5066853;28;20593;-79
2022/08/04 09:15:14;;;;;;;1.23;1.20;;;29.60;99.90;;;;;;5069047;28;20452;-81
2022/08/04 09:17:48;;;;;;;1.57;1.47;;;29.60;99.90;;;;;;5068946;28;20591;-80
2022/08/04 09:20:24;;;;;;;1.60;1.50;;;29.50;99.90;;;;;;5066904;28;20474;-81
2022/08/04 09:23:03;;;;;;;1.40;1.30;;;29.50;99.90;;;;;;5064306;28;20454;-80
2022/08/04 09:25:38;;;;;;;1.50;1.40;;;29.60;99.90;;;;;;5068098;28;20445;-80
2022/08/04 09:28:19;;;;;;;1.60;1.50;;;29.60;99.90;;;;;;5068550;28;20533;-80
2022/08/04 09:31:13;;;;;;;1.90;1.40;;;29.60;99.90;;;;;;5068103;28;20974;-80
2022/08/04 09:33:49;;;;;;;1.40;1.30;;;29.60;99.90;;;;;;5066698;28;20462;-81
2022/08/04 09:36:28;;;;;;;1.60;1.50;;;29.80;99.90;;;;;;5057420;28;20512;-82
2022/08/04 09:39:09;;;;;;;1.53;1.43;;;29.90;99.90;;;;;;5066507;28;20446;-81
2022/08/04 09:41:47;;;;;;;1.67;1.57;;;30.00;99.90;;;;;;5065603;28;20457;-81
2022/08/04 09:44:28;;;;;;;1.80;1.70;;;30.10;99.90;;;;;;5067234;28;20465;-81
2022/08/04 09:47:24;;;;;;;2.60;1.20;;;30.10;99.90;;;;;;5064869;28;20446;-81
2022/08/04 09:50:16;;;;;;;1.50;1.40;;;30.30;99.90;;;;;;5099339;27;20479;-81
2022/08/04 09:52:49;;;;;;;1.63;1.53;;;30.30;99.90;;;;;;5068525;28;20451;-81
2022/08/04 09:55:32;;;;;;;1.70;1.60;;;30.40;99.90;;;;;;5066233;28;20454;-81
2022/08/04 09:58:08;;;;;;;1.40;1.30;;;30.60;99.90;;;;;;5071903;28;20523;-83
2022/08/04 10:00:49;;;;;;;1.70;1.53;;;30.60;99.90;;;;;;5064963;28;20474;-81
2022/08/04 10:03:21;;;;;;;1.40;1.30;;;30.70;99.90;;;;;;5068449;28;20455;-82
2022/08/04 10:06:04;;;;;;;1.63;1.53;;;30.60;99.90;;;;;;5058181;28;20468;-81
2022/08/04 10:08:48;;;;;;;1.57;1.13;;;30.70;99.90;;;;;;5071028;28;20538;-81
2022/08/04 10:11:40;;;;;;;1.40;1.30;;;30.70;99.90;;;;;;5067810;28;20455;-81
2022/08/04 10:14:41;;;;;;;1.60;1.50;;;30.80;99.90;;;;;;5064987;28;20458;-81
2022/08/04 10:17:35;;;;;;;1.40;1.30;;;30.90;99.90;;;;;;5056794;28;21236;-81
2022/08/04 10:20:11;;;;;;;1.53;1.40;;;30.90;99.90;;;;;;5065504;28;20518;-82
2022/08/04 10:22:43;;;;;;;1.67;1.57;;;31.00;99.90;;;;;;5073380;28;20826;-82
2022/08/04 10:25:42;;;;;;;1.50;1.40;;;31.00;99.90;;;;;;5068890;28;20459;-81
2022/08/04 10:28:37;;;;;;;1.60;1.50;;;31.10;99.90;;;;;;5065580;28;20552;-81
2022/08/04 10:31:09;;;;;;;1.40;1.30;;;31.20;99.90;;;;;;5067481;28;20459;-81
2022/08/04 10:33:44;;;;;;;1.77;1.27;;;31.10;99.90;;;;;;5071985;28;20969;-81
2022/08/04 10:36:18;;;;;;;1.37;1.27;;;31.10;99.90;;;;;;5065930;28;20465;-82
2022/08/04 10:38:56;;;;;;;1.40;1.30;;;31.10;99.90;;;;;;5071087;28;20520;-81
2022/08/04 10:41:32;;;;;;;1.93;1.83;;;31.20;99.90;;;;;;5064167;28;20536;-80
2022/08/04 10:44:14;;;;;;;1.07;0.97;;;31.20;99.90;;;;;;5057639;28;20462;-80
2022/08/04 10:46:49;;;;;;;1.43;1.33;;;31.20;99.90;;;;;;5069616;28;20471;-82
2022/08/04 10:49:23;;;;;;;2.07;1.30;;;31.20;99.90;;;;;;5085224;28;20913;-82
2022/08/04 10:51:56;;;;;;;1.30;1.20;;;31.30;99.90;;;;;;5069812;28;21042;-80
2022/08/04 10:54:34;;;;;;;1.50;1.40;;;31.30;99.90;;;;;;5064981;28;20454;-82
2022/08/04 10:57:07;;;;;;;1.30;1.20;;;31.30;99.90;;;;;;5068261;28;20511;-81
2022/08/04 10:59:44;;;;;;;1.30;1.20;;;31.30;99.90;;;;;;5069334;28;20471;-81
2022/08/04 11:02:24;;;;;;;1.23;1.13;;;31.40;99.90;;;;;;5075261;28;20898;-81
2022/08/04 11:05:06;;;;;;;1.20;1.10;;;31.40;99.90;;;;;;5070477;28;20510;-80
2022/08/04 11:07:37;;;;;;;1.57;1.47;;;31.50;99.90;;;;;;5065125;28;20493;-80
2022/08/04 11:10:07;;;;;;;1.40;1.30;;;31.50;99.90;;;;;;5061982;28;20490;-81
2022/08/04 11:12:38;;;;;;;1.20;1.20;;;31.60;99.90;;;;;;5065953;28;20455;-81
2022/08/04 11:15:13;;;;;;;1.27;1.17;;;31.70;99.90;;;;;;5064379;28;20469;-82
2022/08/04 11:17:46;;;;;;;1.67;1.20;;;31.70;99.90;;;;;;5062901;28;20500;-81
2022/08/04 11:20:20;;;;;;;1.90;1.20;;;31.70;99.90;;;;;;5068297;28;20479;-80
2022/08/04 11:23:08;;;;;;;1.40;1.30;;;31.70;99.90;;;;;;5067426;28;20455;-81
2022/08/04 11:25:45;;;;;;;1.47;1.20;;;31.80;99.90;;;;;;5068221;28;20671;-81
2022/08/04 11:28:28;;;;;;;1.83;1.40;;;31.80;99.90;;;;;;5067232;28;20516;-81
2022/08/04 11:31:07;;;;;;;1.70;1.60;;;31.80;99.90;;;;;;5063342;28;20502;-81
2022/08/04 11:33:49;;;;;;;1.60;1.50;;;31.80;99.90;;;;;;5066991;28;20795;-81
2022/08/04 11:36:23;;;;;;;1.17;1.10;;;31.90;99.90;;;;;;5059855;28;20459;-81
2022/08/04 11:39:00;;;;;;;1.53;1.43;;;31.80;99.90;;;;;;5061519;28;20462;-81
2022/08/04 11:41:48;;;;;;;1.53;1.43;;;31.90;99.90;;;;;;5067847;28;20556;-81
2022/08/04 11:44:24;;;;;;;1.43;1.33;;;32.00;99.90;;;;;;5064563;28;21049;-81
2022/08/04 11:46:58;;;;;;;1.37;1.27;;;32.10;99.90;;;;;;5062730;28;21143;-80
2022/08/04 11:49:32;;;;;;;1.20;1.10;;;32.00;99.90;;;;;;5065055;28;20811;-82
2022/08/04 11:52:22;;;;;;;2.33;1.43;;;32.10;99.90;;;;;;5072402;28;20457;-81
2022/08/04 11:54:51;;;;;;;1.63;1.53;;;32.20;99.90;;;;;;5065093;28;20455;-80
2022/08/04 11:57:22;;;;;;;1.73;1.60;;;32.20;99.90;;;;;;5064422;28;20476;-82
2022/08/04 12:00:05;;;;;;;1.27;1.20;;;32.20;99.90;;;;;;5095203;28;20478;-81
2022/08/04 12:03:10;;;;;;;1.80;1.23;;;32.20;99.90;;;;;;5068365;28;20462;-81
2022/08/04 12:05:46;;;;;;;1.47;1.37;;;32.20;99.90;;;;;;5058585;28;20863;-81
2022/08/04 12:08:33;;;;;;;1.63;1.20;;;32.20;99.90;;;;;;5066686;28;20454;-82
2022/08/04 12:11:12;;;;;;;1.60;1.50;;;32.20;99.90;;;;;;5064202;28;20544;-81
2022/08/04 12:13:48;;;;;;;1.57;1.47;;;32.20;99.90;;;;;;5066151;28;20464;-81
2022/08/04 12:16:22;;;;;;;2.70;1.40;;;32.20;99.90;;;;;;5065853;28;20442;-81
2022/08/04 12:19:01;;;;;;;1.40;1.30;;;32.20;99.90;;;;;;5065971;28;20545;-82
2022/08/04 12:21:35;;;;;;;2.37;1.50;;;32.20;99.90;;;;;;5076011;28;20485;-81
2022/08/04 12:24:13;;;;;;;1.83;1.60;;;32.20;99.90;;;;;;5067244;28;20467;-80
2022/08/04 12:26:47;;;;;;;1.37;1.27;;;32.20;99.90;;;;;;5066846;28;20458;-82
2022/08/04 12:29:18;;;;;;;1.37;1.30;;;32.10;99.90;;;;;;5069245;28;20470;-80
2022/08/04 12:31:50;;;;;;;1.43;1.30;;;32.10;99.90;;;;;;5069567;28;21019;-81
2022/08/04 12:34:31;;;;;;;2.30;1.40;;;32.10;99.90;;;;;;5069787;28;20451;-80
2022/08/04 12:37:04;;;;;;;1.30;1.20;;;32.10;99.90;;;;;;5064262;28;20454;-81
2022/08/04 12:39:36;;;;;;;1.30;1.20;;;32.10;99.90;;;;;;5062477;28;20916;-81
2022/08/04 12:42:33;;;;;;;1.90;1.80;;;32.10;99.90;;;;;;5065165;28;20445;-81
2022/08/04 12:45:07;;;;;;;1.63;1.50;;;32.20;99.90;;;;;;5064498;28;20523;-80
2022/08/04 12:47:36;;;;;;;1.70;1.50;;;32.30;99.90;;;;;;5061306;28;21176;-82
2022/08/04 12:50:10;;;;;;;1.87;1.33;;;32.80;99.90;;;;;;5070977;28;20470;-81
2022/08/04 12:52:44;;;;;;;1.50;1.40;;;32.40;99.90;;;;;;5067459;28;20462;-81
2022/08/04 12:55:33;;;;;;;1.70;1.60;;;32.40;99.90;;;;;;5062947;28;20468;-81
2022/08/04 12:58:02;;;;;;;2.83;1.70;;;32.50;99.90;;;;;;5063431;28;20458;-80
2022/08/04 13:00:35;;;;;;;1.83;1.30;;;32.70;99.90;;;;;;5066236;28;20479;-81
2022/08/04 13:03:14;;;;;;;1.67;1.57;;;32.70;99.90;;;;;;5065136;28;20581;-81
2022/08/04 13:05:45;;;;;;;1.70;1.50;;;32.70;99.90;;;;;;5092939;28;21203;-81
2022/08/04 13:08:14;;;;;;;1.77;1.60;;;32.80;99.90;;;;;;5062746;28;20451;-81
2022/08/04 13:10:47;;;;;;;2.70;1.40;;;32.80;99.90;;;;;;5061884;28;20481;-81
2022/08/04 13:13:19;;;;;;;1.83;1.73;;;32.80;99.90;;;;;;5066511;28;20450;-80
2022/08/04 13:15:57;;;;;;;2.33;1.50;;;32.80;99.90;;;;;;5065811;28;21264;-81
2022/08/04 13:18:28;;;;;;;2.43;2.07;;;32.80;99.90;;;;;;5059546;28;20461;-81
2022/08/04 13:21:13;;;;;;;1.50;1.40;;;32.80;99.90;;;;;;5063995;28;20555;-82
2022/08/04 13:23:52;;;;;;;3.03;1.70;;;32.80;99.90;;;;;;5068532;28;20539;-81
2022/08/04 13:26:53;;;;;;;1.60;1.37;;;32.80;99.90;;;;;;5069011;28;20454;-81
2022/08/04 13:29:31;;;;;;;1.60;1.50;;;32.70;99.90;;;;;;5067068;28;20485;-81
2022/08/04 13:32:22;;;;;;;1.70;1.60;;;32.70;99.90;;;;;;5069549;28;20534;-81
2022/08/04 13:34:52;;;;;;;1.40;1.30;;;32.70;99.90;;;;;;5070655;28;20984;-81
2022/08/04 13:37:26;;;;;;;1.63;1.53;;;32.70;99.90;;;;;;5064139;28;20438;-81
2022/08/04 13:39:57;;;;;;;1.60;1.50;;;32.70;99.90;;;;;;5059686;28;20554;-81
2022/08/04 13:42:27;;;;;;;1.50;1.40;;;32.70;99.90;;;;;;5057480;28;20470;-82
2022/08/04 13:44:57;;;;;;;1.80;1.70;;;32.70;99.90;;;;;;5062807;28;20509;-81
2022/08/04 13:47:30;;;;;;;1.40;1.30;;;32.70;99.90;;;;;;5062698;28;20463;-81
2022/08/04 13:50:15;;;;;;;1.33;1.23;;;32.70;99.90;;;;;;5061304;28;20474;-81
2022/08/04 13:52:45;;;;;;;1.60;1.50;;;32.70;99.90;;;;;;5063719;28;21144;-81
2022/08/04 13:55:25;;;;;;;1.90;1.80;;;32.70;99.90;;;;;;5060732;28;20443;-81
2022/08/04 13:57:58;;;;;;;1.57;1.47;;;32.70;99.90;;;;;;5060640;28;20470;-81
2022/08/04 14:00:38;;;;;;;2.10;2.00;;;32.70;99.90;;;;;;5062088;28;20490;-81
2022/08/04 14:03:08;;;;;;;1.50;1.40;;;32.70;99.90;;;;;;5062882;28;20978;-81
2022/08/04 14:06:14;;;;;;;1.93;1.70;;;32.70;99.90;;;;;;5061189;28;20466;-80
2022/08/04 14:08:52;;;;;;;1.77;1.33;;;32.70;99.90;;;;;;5061714;28;20458;-80
2022/08/04 14:11:30;;;;;;;2.13;1.70;;;32.60;99.90;;;;;;5067757;28;20482;-83
2022/08/04 14:14:21;;;;;;;1.50;1.40;;;32.60;99.90;;;;;;5061482;28;20525;-81
2022/08/04 14:16:58;;;;;;;1.33;1.33;;;32.40;99.90;;;;;;5066418;28;20973;-81
2022/08/04 14:19:27;;;;;;;1.60;1.50;;;32.60;99.90;;;;;;5065748;28;20586;-81
2022/08/04 14:22:03;;;;;;;1.73;1.63;;;32.60;99.90;;;;;;5067230;28;20443;-83
2022/08/04 14:24:33;;;;;;;1.50;1.40;;;32.60;99.90;;;;;;5065867;28;20490;-81
2022/08/04 14:27:01;;;;;;;1.73;1.60;;;32.50;99.90;;;;;;5067031;28;20455;-81
2022/08/04 14:29:37;;;;;;;1.40;1.30;;;32.50;99.90;;;;;;5062563;28;20475;-81
2022/08/04 14:32:09;;;;;;;1.80;1.70;;;32.50;99.90;;;;;;5071350;28;20489;-81
2022/08/04 14:34:49;;;;;;;1.40;1.30;;;32.50;99.90;;;;;;5063907;28;20533;-81
2022/08/04 14:37:21;;;;;;;1.40;1.30;;;32.60;99.90;;;;;;5065600;28;20482;-81
2022/08/04 14:39:53;;;;;;;1.80;1.70;;;32.60;99.90;;;;;;5066473;28;20565;-81
2022/08/04 14:42:43;;;;;;;1.90;1.30;;;32.60;99.90;;;;;;5067086;28;20489;-82
2022/08/04 14:45:31;;;;;;;1.70;1.60;;;32.60;99.90;;;;;;5069478;28;20535;-81
2022/08/04 14:48:00;;;;;;;1.50;1.40;;;32.60;99.90;;;;;;5067702;28;20453;-81
2022/08/04 14:50:37;;;;;;;1.73;1.63;;;32.60;99.90;;;;;;5066764;28;20841;-82
2022/08/04 14:53:09;;;;;;;2.07;1.40;;;32.60;99.90;;;;;;5061351;28;20469;-82
2022/08/04 14:55:40;;;;;;;2.23;1.70;;;32.70;99.90;;;;;;5064035;28;21111;-82
2022/08/04 14:58:17;;;;;;;1.70;1.60;;;32.70;99.90;;;;;;5062079;28;20833;-81
2022/08/04 15:01:07;;;;;;;2.27;1.60;;;32.70;99.90;;;;;;5065410;28;20478;-81
2022/08/04 15:03:41;;;;;;;1.60;1.50;;;32.70;99.90;;;;;;5066999;28;20479;-81
2022/08/04 15:06:21;;;;;;;1.77;1.67;;;32.80;99.90;;;;;;5067579;28;20446;-81
2022/08/04 15:08:50;;;;;;;1.50;1.40;;;32.80;99.90;;;;;;5066403;28;20484;-81